createdAt,value
2022-12-05T00:02:11.689Z,13.49
2022-12-05T00:04:40.353Z,13.47
2022-12-05T00:07:07.549Z,13.46
2022-12-05T00:09:36.507Z,13.45
2022-12-05T00:12:04.043Z,13.43
2022-12-05T00:14:31.432Z,13.42
2022-12-05T00:16:59.103Z,13.41
2022-12-05T00:19:27.454Z,13.40
2022-12-05T00:21:54.624Z,13.38
2022-12-05T00:24:22.302Z,13.37
2022-12-05T00:26:50.201Z,13.29
2022-12-05T00:29:17.434Z,13.38
2022-12-05T00:31:46.983Z,13.34
2022-12-05T00:34:15.222Z,13.26
2022-12-05T00:36:42.247Z,13.33
2022-12-05T00:39:14.745Z,13.25
2022-12-05T00:41:43.165Z,13.33
2022-12-05T00:44:12.350Z,13.33
2022-12-05T00:46:39.944Z,13.22
2022-12-05T00:49:07.799Z,13.30
2022-12-05T00:51:39.477Z,13.29
2022-12-05T00:54:09.519Z,13.27
2022-12-05T00:56:44.824Z,13.25
2022-12-05T00:59:19.223Z,13.26
2022-12-05T01:01:49.762Z,13.25
2022-12-05T01:04:23.301Z,13.16
2022-12-05T01:06:54.053Z,13.23
2022-12-05T01:09:22.451Z,13.13
2022-12-05T01:11:52.480Z,13.17
2022-12-05T01:14:22.840Z,13.17
2022-12-05T01:16:55.921Z,13.16
2022-12-05T01:19:28.974Z,13.15
2022-12-05T01:21:56.984Z,13.13
2022-12-05T01:24:25.196Z,13.09
2022-12-05T01:26:53.503Z,13.15
2022-12-05T01:29:22.361Z,13.07
2022-12-05T01:31:51.881Z,13.16
2022-12-05T01:34:19.829Z,13.16
2022-12-05T01:36:47.823Z,13.15
2022-12-05T01:39:17.978Z,13.14
2022-12-05T01:41:50.764Z,13.06
2022-12-05T01:44:22.293Z,13.15
2022-12-05T01:46:51.572Z,13.10
2022-12-05T01:49:28.033Z,13.08
2022-12-05T01:52:23.687Z,13.07
2022-12-05T01:54:55.495Z,13.13
2022-12-05T01:57:24.784Z,13.12
2022-12-05T01:59:56.172Z,13.11
2022-12-05T02:02:23.776Z,13.03
2022-12-05T02:05:20.499Z,13.12
2022-12-05T02:07:48.148Z,13.10
2022-12-05T02:10:20.439Z,13.00
2022-12-05T02:12:47.699Z,12.98
2022-12-05T02:16:00.223Z,12.92
2022-12-05T02:18:32.848Z,12.88
2022-12-05T02:21:14.454Z,12.84
2022-12-05T02:23:53.149Z,12.82
2022-12-05T02:26:41.697Z,12.76
2022-12-05T02:29:30.750Z,12.68
2022-12-05T02:32:20.597Z,12.66
2022-12-05T02:35:20.057Z,12.73
2022-12-05T02:37:59.665Z,12.62
2022-12-05T02:40:44.928Z,12.69
2022-12-05T02:43:35.512Z,12.68
2022-12-05T02:46:09.966Z,12.56
2022-12-05T02:48:39.586Z,12.63
2022-12-05T02:51:09.473Z,12.62
2022-12-05T02:53:38.457Z,12.62
2022-12-05T02:56:07.948Z,12.60
2022-12-05T02:58:49.125Z,12.51
2022-12-05T03:01:16.694Z,12.60
2022-12-05T03:03:44.988Z,12.58
2022-12-05T03:06:20.166Z,12.57
2022-12-05T03:08:53.987Z,12.57
2022-12-05T03:11:20.974Z,12.56
2022-12-05T03:13:56.451Z,12.54
2022-12-05T03:16:38.867Z,12.54
2022-12-05T03:19:18.135Z,12.52
2022-12-05T03:21:52.008Z,12.52
2022-12-05T03:24:19.128Z,12.52
2022-12-05T03:27:08.386Z,12.52
2022-12-05T03:29:57.422Z,12.49
2022-12-05T03:32:46.230Z,12.49
2022-12-05T03:35:16.641Z,12.49
2022-12-05T03:38:07.322Z,12.47
2022-12-05T03:41:08.153Z,12.46
2022-12-05T03:43:52.681Z,12.44
2022-12-05T03:46:31.508Z,12.44
2022-12-05T03:49:11.411Z,12.35
2022-12-05T03:51:48.937Z,12.43
2022-12-05T03:54:25.499Z,12.42
2022-12-05T03:57:17.406Z,12.41
2022-12-05T03:59:59.594Z,12.39
2022-12-05T04:02:45.849Z,12.39
2022-12-05T04:05:30.713Z,12.40
2022-12-05T04:08:04.988Z,12.38
2022-12-05T04:10:48.833Z,12.30
2022-12-05T04:13:42.145Z,12.37
2022-12-05T04:16:33.760Z,12.27
2022-12-05T04:19:09.347Z,12.28
2022-12-05T04:21:42.996Z,12.33
2022-12-05T04:24:35.471Z,12.26
2022-12-05T04:27:12.721Z,12.32
2022-12-05T04:29:51.074Z,12.32
2022-12-05T04:32:19.979Z,12.24
2022-12-05T04:34:55.681Z,12.33
2022-12-05T04:37:26.502Z,12.32
2022-12-05T04:40:04.330Z,12.32
2022-12-05T04:42:35.701Z,12.30
2022-12-05T04:45:10.682Z,12.32
2022-12-05T04:47:47.191Z,12.31
2022-12-05T04:50:16.694Z,12.31
2022-12-05T04:52:48.103Z,12.30
2022-12-05T04:55:26.116Z,12.21
2022-12-05T04:58:04.990Z,12.30
2022-12-05T05:00:39.116Z,12.28
2022-12-05T05:03:36.577Z,12.27
2022-12-05T05:06:04.371Z,12.28
2022-12-05T05:08:31.228Z,12.27
2022-12-05T05:11:16.596Z,12.26
2022-12-05T05:13:43.582Z,12.27
2022-12-05T05:16:18.414Z,12.27
2022-12-05T05:18:50.062Z,12.28
2022-12-05T05:21:21.714Z,12.20
2022-12-05T05:23:48.922Z,12.27
2022-12-05T05:26:16.508Z,12.26
2022-12-05T05:28:43.774Z,12.26
2022-12-05T05:31:11.138Z,12.26
2022-12-05T05:33:38.211Z,12.26
2022-12-05T05:36:07.312Z,12.25
2022-12-05T05:38:45.093Z,12.25
2022-12-05T05:41:17.018Z,12.25
2022-12-05T05:43:45.210Z,12.24
2022-12-05T05:46:13.000Z,12.24
2022-12-05T05:48:40.483Z,12.16
2022-12-05T05:51:10.213Z,12.16
2022-12-05T05:53:37.417Z,12.25
2022-12-05T05:56:06.144Z,12.31
2022-12-05T05:58:33.067Z,12.39
2022-12-05T06:01:09.784Z,12.41
2022-12-05T06:03:37.293Z,12.43
2022-12-05T06:06:10.256Z,12.32
2022-12-05T06:08:39.203Z,12.20
2022-12-05T06:11:27.103Z,12.17
2022-12-05T06:13:58.576Z,12.10
2022-12-05T06:16:25.370Z,12.21
2022-12-05T06:18:53.062Z,12.22
2022-12-05T06:21:20.938Z,12.20
2022-12-05T06:23:48.513Z,12.31
2022-12-05T06:26:21.590Z,12.30
2022-12-05T06:28:48.704Z,12.30
2022-12-05T06:31:19.265Z,12.28
2022-12-05T06:33:46.676Z,12.30
2022-12-05T06:36:15.972Z,12.23
2022-12-05T06:38:43.243Z,12.31
2022-12-05T06:41:16.779Z,12.34
2022-12-05T06:43:44.181Z,12.31
2022-12-05T06:46:13.708Z,12.43
2022-12-05T06:48:40.884Z,12.40
2022-12-05T06:51:11.336Z,12.51
2022-12-05T06:53:39.856Z,12.47
2022-12-05T06:56:14.102Z,12.50
2022-12-05T06:58:46.012Z,12.57
2022-12-05T07:01:33.107Z,12.52
2022-12-05T07:04:00.494Z,12.61
2022-12-05T07:06:28.136Z,12.58
2022-12-05T07:08:55.097Z,12.66
2022-12-05T07:11:22.228Z,12.68
2022-12-05T07:13:49.512Z,12.68
2022-12-05T07:16:16.639Z,12.70
2022-12-05T07:18:43.671Z,12.71
2022-12-05T07:21:14.323Z,12.72
2022-12-05T07:23:43.349Z,12.72
2022-12-05T07:26:13.468Z,12.75
2022-12-05T07:28:40.611Z,12.71
2022-12-05T07:31:11.295Z,12.72
2022-12-05T07:33:38.742Z,12.47
2022-12-05T07:36:14.569Z,12.52
2022-12-05T07:38:43.211Z,12.42
2022-12-05T07:41:16.420Z,12.32
2022-12-05T07:43:43.509Z,12.36
2022-12-05T07:46:13.631Z,12.31
2022-12-05T07:48:41.266Z,12.29
2022-12-05T07:51:10.099Z,12.25
2022-12-05T07:53:38.817Z,12.24
2022-12-05T07:56:08.476Z,12.24
2022-12-05T07:58:36.406Z,12.22
2022-12-05T08:01:09.137Z,12.22
2022-12-05T08:03:40.161Z,12.11
2022-12-05T08:06:12.876Z,12.15
2022-12-05T08:08:40.430Z,12.14
2022-12-05T08:11:11.161Z,12.10
2022-12-05T08:13:38.709Z,12.14
2022-12-05T08:16:08.858Z,12.18
2022-12-05T08:18:35.865Z,12.19
2022-12-05T08:21:09.562Z,12.11
2022-12-05T08:23:37.672Z,12.18
2022-12-05T08:26:06.852Z,12.18
2022-12-05T08:28:34.558Z,12.19
2022-12-05T08:31:10.949Z,12.20
2022-12-05T08:33:38.585Z,12.22
2022-12-05T08:36:07.886Z,12.22
2022-12-05T08:38:35.933Z,12.23
2022-12-05T08:41:10.767Z,12.20
2022-12-05T08:43:37.965Z,12.17
2022-12-05T08:46:06.071Z,12.18
2022-12-05T08:48:34.734Z,12.17
2022-12-05T08:51:07.542Z,12.08
2022-12-05T08:53:40.958Z,12.17
2022-12-05T08:56:11.579Z,12.16
2022-12-05T08:58:39.527Z,12.10
2022-12-05T09:01:12.548Z,12.12
2022-12-05T09:03:47.355Z,12.10
2022-12-05T09:06:23.656Z,12.11
2022-12-05T09:08:56.374Z,12.14
2022-12-05T09:11:27.274Z,12.06
2022-12-05T09:13:56.525Z,12.08
2022-12-05T09:16:37.053Z,12.13
2022-12-05T09:19:05.036Z,12.07
2022-12-05T09:21:33.357Z,12.06
2022-12-05T09:24:01.262Z,12.12
2022-12-05T09:26:30.842Z,12.15
2022-12-05T09:28:59.264Z,12.20
2022-12-05T09:31:27.899Z,12.21
2022-12-05T09:33:56.710Z,12.27
2022-12-05T09:36:30.204Z,12.30
2022-12-05T09:39:02.573Z,12.32
2022-12-05T09:42:10.276Z,12.34
2022-12-05T09:44:59.297Z,12.35
2022-12-05T09:47:45.548Z,12.36
2022-12-05T09:50:18.893Z,12.36
2022-12-05T09:53:00.523Z,12.35
2022-12-05T09:55:37.002Z,12.34
2022-12-05T09:58:12.422Z,12.36
2022-12-05T10:00:41.098Z,12.26
2022-12-05T10:03:35.338Z,12.29
2022-12-05T10:06:22.473Z,12.16
2022-12-05T10:09:09.401Z,12.23
2022-12-05T10:11:55.573Z,12.11
2022-12-05T10:14:59.134Z,12.19
2022-12-05T10:17:36.891Z,12.16
2022-12-05T10:20:15.932Z,12.18
2022-12-05T10:22:48.890Z,12.15
2022-12-05T10:25:21.338Z,12.09
2022-12-05T10:28:01.108Z,12.09
2022-12-05T10:30:32.932Z,12.12
2022-12-05T10:33:09.312Z,12.16
2022-12-05T10:35:40.333Z,12.16
2022-12-05T10:38:17.071Z,12.17
2022-12-05T10:40:49.300Z,12.19
2022-12-05T10:43:29.553Z,12.19
2022-12-05T10:45:58.670Z,12.18
2022-12-05T10:48:27.360Z,12.15
2022-12-05T10:50:57.671Z,12.16
2022-12-05T10:53:41.856Z,12.12
2022-12-05T10:56:44.890Z,12.08
2022-12-05T10:59:21.673Z,12.03
2022-12-05T11:01:52.168Z,11.95
2022-12-05T11:04:28.908Z,11.92
2022-12-05T11:07:02.195Z,12.00
2022-12-05T11:09:33.813Z,11.96
2022-12-05T11:12:09.844Z,12.00
2022-12-05T11:14:37.418Z,12.00
2022-12-05T11:17:06.493Z,12.00
2022-12-05T11:19:37.646Z,12.04
2022-12-05T11:22:08.527Z,12.05
2022-12-05T11:24:39.443Z,12.08
2022-12-05T11:27:19.329Z,11.93
2022-12-05T11:29:54.675Z,12.10
2022-12-05T11:32:25.762Z,11.94
2022-12-05T11:35:02.747Z,12.18
2022-12-05T11:37:45.458Z,12.31
2022-12-05T11:40:21.626Z,12.42
2022-12-05T11:43:29.085Z,12.43
2022-12-05T11:46:02.414Z,12.48
2022-12-05T11:48:58.590Z,12.53
2022-12-05T11:51:26.601Z,12.61
2022-12-05T11:54:08.735Z,12.68
2022-12-05T11:56:48.806Z,12.63
2022-12-05T11:59:33.351Z,12.76
2022-12-05T12:02:16.415Z,12.73
2022-12-05T12:05:08.133Z,12.84
2022-12-05T12:07:51.336Z,12.85
2022-12-05T12:10:55.407Z,12.81
2022-12-05T12:13:54.553Z,12.78
2022-12-05T12:16:28.280Z,12.80
2022-12-05T12:19:29.207Z,12.82
2022-12-05T12:21:59.553Z,12.96
2022-12-05T12:24:54.404Z,13.04
2022-12-05T12:27:30.269Z,13.01
2022-12-05T12:30:18.591Z,13.01
2022-12-05T12:33:06.584Z,12.94
2022-12-05T12:35:45.983Z,13.08
2022-12-05T12:38:51.552Z,13.06
2022-12-05T12:41:35.751Z,13.02
2022-12-05T12:44:38.076Z,13.00
2022-12-05T12:47:18.470Z,13.01
2022-12-05T12:50:25.806Z,13.02
2022-12-05T12:53:30.832Z,13.01
2022-12-05T12:56:16.170Z,12.95
2022-12-05T12:59:25.902Z,13.00
2022-12-05T13:02:12.832Z,12.95
2022-12-05T13:05:09.081Z,13.00
2022-12-05T13:07:50.989Z,13.02
2022-12-05T13:10:35.239Z,13.08
2022-12-05T13:13:06.019Z,13.07
2022-12-05T13:15:41.836Z,13.06
2022-12-05T13:18:17.384Z,13.12
2022-12-05T13:20:46.780Z,13.12
2022-12-05T13:23:18.480Z,13.11
2022-12-05T13:25:48.524Z,13.08
2022-12-05T13:28:32.783Z,13.04
2022-12-05T13:31:04.689Z,13.09
2022-12-05T13:33:46.880Z,13.05
2022-12-05T13:36:40.094Z,13.05
2022-12-05T13:39:32.154Z,13.04
2022-12-05T13:42:15.991Z,13.10
2022-12-05T13:44:45.222Z,13.10
2022-12-05T13:47:40.367Z,13.12
2022-12-05T13:50:15.967Z,13.11
2022-12-05T13:52:52.566Z,13.12
2022-12-05T13:55:40.627Z,13.12
2022-12-05T13:58:31.342Z,13.08
2022-12-05T14:01:40.751Z,13.15
2022-12-05T14:04:42.209Z,13.15
2022-12-05T14:07:11.453Z,13.16
2022-12-05T14:09:55.491Z,13.28
2022-12-05T14:12:22.985Z,13.31
2022-12-05T14:14:57.097Z,13.27
2022-12-05T14:17:44.620Z,13.24
2022-12-05T14:20:49.414Z,13.22
2022-12-05T14:23:25.509Z,13.25
2022-12-05T14:26:17.317Z,13.29
2022-12-05T14:29:10.588Z,13.27
2022-12-05T14:32:04.480Z,13.39
2022-12-05T14:34:34.434Z,13.29
2022-12-05T14:37:19.868Z,13.38
2022-12-05T14:39:52.089Z,13.34
2022-12-05T14:42:39.791Z,13.47
2022-12-05T14:45:37.078Z,13.63
2022-12-05T14:48:48.579Z,13.68
2022-12-05T14:51:30.816Z,13.62
2022-12-05T14:54:03.811Z,13.67
2022-12-05T14:56:34.251Z,13.69
2022-12-05T14:59:05.876Z,13.63
2022-12-05T15:01:51.312Z,13.71
2022-12-05T15:04:45.441Z,13.71
2022-12-05T15:07:22.423Z,13.66
2022-12-05T15:09:57.102Z,13.75
2022-12-05T15:12:30.929Z,13.82
2022-12-05T15:15:30.454Z,13.82
2022-12-05T15:18:09.945Z,13.83
2022-12-05T15:20:50.292Z,13.65
2022-12-05T15:23:47.018Z,13.42
2022-12-05T15:26:45.015Z,13.44
2022-12-05T15:29:11.060Z,13.53
2022-12-05T15:31:52.028Z,13.51
2022-12-05T15:34:44.351Z,13.47
2022-12-05T15:37:27.845Z,13.50
2022-12-05T15:40:21.347Z,13.39
2022-12-05T15:42:51.359Z,13.43
2022-12-05T15:45:26.554Z,13.41
2022-12-05T15:47:58.376Z,13.33
2022-12-05T15:50:34.859Z,13.38
2022-12-05T15:53:16.228Z,13.36
2022-12-05T15:56:00.479Z,13.37
2022-12-05T15:58:30.169Z,13.30
2022-12-05T16:01:03.203Z,13.29
2022-12-05T16:03:57.702Z,13.30
2022-12-05T16:06:55.049Z,13.16
2022-12-05T16:09:29.214Z,13.18
2022-12-05T16:12:00.634Z,13.23
2022-12-05T16:17:21.617Z,13.19
2022-12-05T16:19:49.825Z,13.24
2022-12-05T16:22:17.244Z,13.29
2022-12-05T16:25:08.730Z,13.29
2022-12-05T16:27:37.423Z,13.31
2022-12-05T16:30:15.476Z,13.35
2022-12-05T16:32:44.793Z,13.38
2022-12-05T16:35:51.105Z,13.35
2022-12-05T16:38:18.208Z,13.49
2022-12-05T16:40:53.448Z,13.50
2022-12-05T16:43:41.115Z,13.55
2022-12-05T16:46:14.966Z,13.55
2022-12-05T16:48:50.309Z,13.58
2022-12-05T16:51:26.425Z,13.66
2022-12-05T16:53:55.589Z,13.69
2022-12-05T16:56:33.595Z,13.68
2022-12-05T16:59:06.438Z,13.65
2022-12-05T17:01:38.702Z,13.68
2022-12-05T17:04:06.671Z,13.84
2022-12-05T17:06:33.676Z,13.86
2022-12-05T17:09:00.820Z,13.80
2022-12-05T17:11:31.379Z,13.86
2022-12-05T17:13:59.753Z,13.83
2022-12-05T17:16:28.411Z,13.96
2022-12-05T17:18:59.211Z,13.94
2022-12-05T17:21:30.179Z,13.97
2022-12-05T17:23:57.167Z,13.90
2022-12-05T17:26:25.170Z,14.04
2022-12-05T17:28:53.390Z,14.03
2022-12-05T17:31:23.084Z,14.18
2022-12-05T17:33:52.358Z,14.23
2022-12-05T17:36:23.211Z,14.25
2022-12-05T17:38:50.735Z,14.25
2022-12-05T17:41:20.644Z,14.26
2022-12-05T17:43:48.407Z,14.22
2022-12-05T17:46:21.314Z,14.37
2022-12-05T17:48:50.622Z,14.34
2022-12-05T17:51:19.388Z,14.33
2022-12-05T17:53:47.814Z,14.23
2022-12-05T17:56:15.830Z,14.32
2022-12-05T17:58:43.196Z,14.33
2022-12-05T18:01:19.887Z,14.38
2022-12-05T18:03:48.348Z,14.47
2022-12-05T18:06:15.550Z,14.50
2022-12-05T18:08:45.204Z,14.53
2022-12-05T18:11:13.900Z,14.56
2022-12-05T18:13:41.183Z,14.59
2022-12-05T18:16:08.726Z,14.61
2022-12-05T18:18:35.894Z,14.63
2022-12-05T18:21:07.910Z,14.66
2022-12-05T18:23:36.811Z,14.69
2022-12-05T18:26:08.445Z,14.62
2022-12-05T18:28:41.353Z,14.64
2022-12-05T18:31:17.800Z,14.67
2022-12-05T18:33:46.842Z,14.67
2022-12-05T18:36:20.961Z,14.64
2022-12-05T18:38:56.505Z,14.63
2022-12-05T18:41:26.687Z,14.63
2022-12-05T18:43:54.155Z,14.61
2022-12-05T18:46:24.852Z,14.55
2022-12-05T18:48:51.900Z,14.54
2022-12-05T18:51:23.906Z,14.43
2022-12-05T18:53:54.064Z,14.51
2022-12-05T18:56:34.971Z,14.50
2022-12-05T18:59:05.685Z,14.49
2022-12-05T19:01:35.896Z,14.44
2022-12-05T19:04:05.334Z,14.50
2022-12-05T19:06:36.714Z,14.52
2022-12-05T19:09:11.749Z,14.47
2022-12-05T19:11:47.183Z,14.47
2022-12-05T19:14:16.570Z,14.56
2022-12-05T19:16:43.754Z,14.65
2022-12-05T19:19:13.848Z,14.72
2022-12-05T19:21:41.404Z,14.81
2022-12-05T19:24:11.233Z,14.87
2022-12-05T19:26:38.472Z,14.94
2022-12-05T19:29:06.358Z,14.99
2022-12-05T19:31:33.688Z,15.07
2022-12-05T19:34:03.164Z,15.15
2022-12-05T19:36:35.917Z,15.25
2022-12-05T19:39:09.557Z,15.29
2022-12-05T19:41:37.320Z,15.27
2022-12-05T19:44:05.023Z,15.37
2022-12-05T19:46:34.742Z,15.40
2022-12-05T19:49:07.408Z,15.45
2022-12-05T19:51:37.622Z,15.49
2022-12-05T19:54:06.674Z,15.53
2022-12-05T19:56:35.485Z,15.59
2022-12-05T19:59:03.266Z,15.62
2022-12-05T20:01:41.313Z,15.58
2022-12-05T20:04:12.861Z,15.67
2022-12-05T20:06:43.915Z,15.67
2022-12-05T20:09:13.259Z,15.64
2022-12-05T20:11:43.853Z,15.66
2022-12-05T20:14:13.025Z,15.68
2022-12-05T20:16:40.943Z,15.67
2022-12-05T20:19:08.103Z,15.59
2022-12-05T20:21:36.373Z,15.51
2022-12-05T20:24:05.162Z,15.47
2022-12-05T20:26:35.720Z,15.46
2022-12-05T20:29:03.906Z,15.42
2022-12-05T20:31:34.149Z,15.41
2022-12-05T20:34:02.656Z,15.38
2022-12-05T20:36:32.267Z,15.36
2022-12-05T20:39:08.521Z,15.34
2022-12-05T20:41:36.258Z,15.32
2022-12-05T20:44:07.101Z,15.30
2022-12-05T20:46:35.926Z,15.27
2022-12-05T20:49:03.797Z,15.18
2022-12-05T20:51:34.308Z,15.14
2022-12-05T20:54:03.377Z,15.15
2022-12-05T20:56:32.784Z,15.01
2022-12-05T20:59:06.152Z,15.00
2022-12-05T21:01:37.276Z,15.04
2022-12-05T21:04:10.817Z,15.02
2022-12-05T21:06:43.476Z,14.91
2022-12-05T21:09:19.938Z,14.93
2022-12-05T21:11:50.036Z,14.91
2022-12-05T21:14:17.650Z,14.89
2022-12-05T21:16:50.303Z,14.86
2022-12-05T21:19:19.483Z,14.85
2022-12-05T21:21:47.113Z,14.81
2022-12-05T21:24:14.163Z,14.83
2022-12-05T21:26:43.431Z,14.85
2022-12-05T21:29:12.894Z,14.82
2022-12-05T21:31:43.758Z,14.87
2022-12-05T21:34:22.604Z,14.83
2022-12-05T21:37:10.621Z,14.78
2022-12-05T21:39:38.479Z,14.74
2022-12-05T21:42:07.071Z,14.68
2022-12-05T21:44:36.345Z,14.65
2022-12-05T21:47:03.905Z,14.53
2022-12-05T21:49:32.507Z,14.55
2022-12-05T21:52:00.063Z,14.52
2022-12-05T21:54:27.267Z,14.48
2022-12-05T21:56:54.814Z,14.44
2022-12-05T21:59:23.263Z,14.41
2022-12-05T22:01:50.828Z,14.36
2022-12-05T22:04:18.367Z,14.26
2022-12-05T22:06:45.636Z,14.30
2022-12-05T22:09:13.014Z,14.26
2022-12-05T22:11:40.532Z,14.14
2022-12-05T22:14:08.817Z,14.19
2022-12-05T22:16:36.536Z,14.16
2022-12-05T22:19:04.283Z,14.14
2022-12-05T22:21:34.389Z,14.11
2022-12-05T22:24:01.807Z,14.06
2022-12-05T22:26:29.220Z,13.96
2022-12-05T22:28:57.037Z,14.01
2022-12-05T22:31:25.297Z,13.97
2022-12-05T22:33:53.562Z,13.93
2022-12-05T22:36:21.094Z,13.90
2022-12-05T22:38:49.239Z,13.80
2022-12-05T22:41:21.850Z,13.85
2022-12-05T22:43:53.948Z,13.81
2022-12-05T22:46:21.651Z,13.80
2022-12-05T22:48:50.447Z,13.75
2022-12-05T22:51:19.166Z,13.75
2022-12-05T22:53:46.840Z,13.71
2022-12-05T22:56:18.602Z,13.69
2022-12-05T22:58:46.990Z,13.66
2022-12-05T23:01:20.348Z,13.64
2022-12-05T23:03:50.031Z,13.61
2022-12-05T23:06:18.750Z,13.58
2022-12-05T23:08:50.281Z,13.48
2022-12-05T23:11:20.590Z,13.54
2022-12-05T23:13:49.013Z,13.51
2022-12-05T23:16:23.884Z,13.43
2022-12-05T23:18:53.920Z,13.47
2022-12-05T23:21:24.918Z,13.44
2022-12-05T23:23:54.513Z,13.36
2022-12-05T23:26:24.075Z,13.39
2022-12-05T23:28:52.008Z,13.30
2022-12-05T23:31:19.849Z,13.35
2022-12-05T23:33:50.871Z,13.34
2022-12-05T23:36:19.816Z,13.33
2022-12-05T23:38:47.935Z,13.28
2022-12-05T23:41:19.828Z,13.18
2022-12-05T23:43:47.966Z,13.18
2022-12-05T23:46:17.313Z,13.22
2022-12-05T23:48:44.768Z,13.21
2022-12-05T23:51:14.778Z,13.20
2022-12-05T23:53:43.707Z,13.10
2022-12-05T23:56:19.845Z,13.14
2022-12-05T23:58:47.040Z,13.13
